sensor_id;sensor_type;location;lat;lon;timestamp;P1;durP1;ratioP1;P2;durP2;ratioP2
55776;SDS011;54079;44.540;18.784;2023-06-14T00:02:08;2.60;;;2.38;;
55776;SDS011;54079;44.540;18.784;2023-06-14T00:04:34;2.03;;;1.92;;
55776;SDS011;54079;44.540;18.784;2023-06-14T00:07:01;3.08;;;2.15;;
55776;SDS011;54079;44.540;18.784;2023-06-14T00:09:27;3.35;;;2.80;;
55776;SDS011;54079;44.540;18.784;2023-06-14T00:11:53;4.80;;;3.35;;
55776;SDS011;54079;44.540;18.784;2023-06-14T00:14:19;2.88;;;2.60;;
55776;SDS011;54079;44.540;18.784;2023-06-14T00:16:45;2.80;;;2.60;;
55776;SDS011;54079;44.540;18.784;2023-06-14T00:19:11;3.10;;;2.63;;
55776;SDS011;54079;44.540;18.784;2023-06-14T00:21:37;4.63;;;2.33;;
55776;SDS011;54079;44.540;18.784;2023-06-14T00:24:03;3.50;;;2.80;;
55776;SDS011;54079;44.540;18.784;2023-06-14T00:26:30;2.38;;;2.17;;
55776;SDS011;54079;44.540;18.784;2023-06-14T00:28:56;1.63;;;1.52;;
55776;SDS011;54079;44.540;18.784;2023-06-14T00:31:22;2.72;;;2.17;;
55776;SDS011;54079;44.540;18.784;2023-06-14T00:33:48;2.53;;;2.30;;
55776;SDS011;54079;44.540;18.784;2023-06-14T00:36:14;2.78;;;2.22;;
55776;SDS011;54079;44.540;18.784;2023-06-14T00:38:40;1.98;;;1.83;;
55776;SDS011;54079;44.540;18.784;2023-06-14T00:41:06;2.55;;;2.03;;
55776;SDS011;54079;44.540;18.784;2023-06-14T00:43:32;4.78;;;2.20;;
55776;SDS011;54079;44.540;18.784;2023-06-14T00:46:00;2.40;;;2.20;;
55776;SDS011;54079;44.540;18.784;2023-06-14T00:48:26;1.75;;;1.65;;
55776;SDS011;54079;44.540;18.784;2023-06-14T00:50:52;3.53;;;2.92;;
55776;SDS011;54079;44.540;18.784;2023-06-14T00:53:19;4.35;;;3.92;;
55776;SDS011;54079;44.540;18.784;2023-06-14T00:55:48;3.00;;;2.70;;
55776;SDS011;54079;44.540;18.784;2023-06-14T00:58:14;2.10;;;1.90;;
55776;SDS011;54079;44.540;18.784;2023-06-14T01:00:41;2.90;;;2.70;;
55776;SDS011;54079;44.540;18.784;2023-06-14T01:03:07;2.35;;;2.15;;
55776;SDS011;54079;44.540;18.784;2023-06-14T01:05:37;2.80;;;2.58;;
55776;SDS011;54079;44.540;18.784;2023-06-14T01:11:02;2.17;;;1.98;;
55776;SDS011;54079;44.540;18.784;2023-06-14T01:13:33;2.22;;;2.03;;
55776;SDS011;54079;44.540;18.784;2023-06-14T01:16:01;2.50;;;2.30;;
55776;SDS011;54079;44.540;18.784;2023-06-14T01:18:27;3.58;;;2.00;;
55776;SDS011;54079;44.540;18.784;2023-06-14T01:20:55;3.83;;;3.00;;
55776;SDS011;54079;44.540;18.784;2023-06-14T01:23:21;4.50;;;2.65;;
55776;SDS011;54079;44.540;18.784;2023-06-14T01:25:48;2.90;;;2.30;;
55776;SDS011;54079;44.540;18.784;2023-06-14T01:28:18;2.92;;;1.98;;
55776;SDS011;54079;44.540;18.784;2023-06-14T01:30:49;2.50;;;2.30;;
55776;SDS011;54079;44.540;18.784;2023-06-14T01:33:19;2.40;;;1.88;;
55776;SDS011;54079;44.540;18.784;2023-06-14T01:35:50;2.28;;;2.08;;
55776;SDS011;54079;44.540;18.784;2023-06-14T01:38:17;2.47;;;1.63;;
55776;SDS011;54079;44.540;18.784;2023-06-14T01:40:50;2.53;;;2.00;;
55776;SDS011;54079;44.540;18.784;2023-06-14T01:43:19;2.72;;;2.05;;
55776;SDS011;54079;44.540;18.784;2023-06-14T01:45:46;1.63;;;1.50;;
55776;SDS011;54079;44.540;18.784;2023-06-14T01:48:16;3.97;;;2.20;;
55776;SDS011;54079;44.540;18.784;2023-06-14T01:50:43;2.33;;;1.83;;
55776;SDS011;54079;44.540;18.784;2023-06-14T01:53:09;2.13;;;1.85;;
55776;SDS011;54079;44.540;18.784;2023-06-14T01:55:35;2.88;;;1.40;;
55776;SDS011;54079;44.540;18.784;2023-06-14T01:58:08;2.10;;;1.40;;
55776;SDS011;54079;44.540;18.784;2023-06-14T02:00:35;2.72;;;1.80;;
55776;SDS011;54079;44.540;18.784;2023-06-14T02:03:01;1.50;;;1.40;;
55776;SDS011;54079;44.540;18.784;2023-06-14T02:05:29;2.20;;;2.00;;
55776;SDS011;54079;44.540;18.784;2023-06-14T02:07:55;3.75;;;2.25;;
55776;SDS011;54079;44.540;18.784;2023-06-14T02:10:21;4.95;;;2.50;;
55776;SDS011;54079;44.540;18.784;2023-06-14T02:12:47;2.65;;;2.25;;
55776;SDS011;54079;44.540;18.784;2023-06-14T02:15:13;1.90;;;1.80;;
55776;SDS011;54079;44.540;18.784;2023-06-14T02:17:46;2.05;;;1.83;;
55776;SDS011;54079;44.540;18.784;2023-06-14T02:20:12;2.97;;;2.17;;
55776;SDS011;54079;44.540;18.784;2023-06-14T02:22:38;2.63;;;2.35;;
55776;SDS011;54079;44.540;18.784;2023-06-14T02:25:04;2.08;;;1.83;;
55776;SDS011;54079;44.540;18.784;2023-06-14T02:27:31;2.00;;;1.58;;
55776;SDS011;54079;44.540;18.784;2023-06-14T02:29:57;1.88;;;1.27;;
55776;SDS011;54079;44.540;18.784;2023-06-14T02:32:23;1.92;;;1.65;;
55776;SDS011;54079;44.540;18.784;2023-06-14T02:34:49;1.92;;;1.77;;
55776;SDS011;54079;44.540;18.784;2023-06-14T02:37:16;2.10;;;2.00;;
55776;SDS011;54079;44.540;18.784;2023-06-14T02:39:41;2.92;;;1.70;;
55776;SDS011;54079;44.540;18.784;2023-06-14T02:42:07;3.08;;;2.60;;
55776;SDS011;54079;44.540;18.784;2023-06-14T02:44:33;2.78;;;2.50;;
55776;SDS011;54079;44.540;18.784;2023-06-14T02:47:00;2.40;;;2.20;;
55776;SDS011;54079;44.540;18.784;2023-06-14T02:49:26;3.88;;;2.25;;
55776;SDS011;54079;44.540;18.784;2023-06-14T02:51:52;2.70;;;1.95;;
55776;SDS011;54079;44.540;18.784;2023-06-14T02:54:18;7.78;;;2.13;;
55776;SDS011;54079;44.540;18.784;2023-06-14T02:56:44;2.20;;;2.03;;
55776;SDS011;54079;44.540;18.784;2023-06-14T02:59:10;2.20;;;2.00;;
55776;SDS011;54079;44.540;18.784;2023-06-14T03:01:36;1.98;;;1.70;;
55776;SDS011;54079;44.540;18.784;2023-06-14T03:04:04;3.13;;;2.85;;
55776;SDS011;54079;44.540;18.784;2023-06-14T03:06:30;3.15;;;2.38;;
55776;SDS011;54079;44.540;18.784;2023-06-14T03:08:59;7.63;;;3.28;;
55776;SDS011;54079;44.540;18.784;2023-06-14T03:11:29;5.03;;;2.85;;
55776;SDS011;54079;44.540;18.784;2023-06-14T03:13:55;3.47;;;2.22;;
55776;SDS011;54079;44.540;18.784;2023-06-14T03:16:22;2.85;;;2.13;;
55776;SDS011;54079;44.540;18.784;2023-06-14T03:18:49;3.50;;;3.20;;
55776;SDS011;54079;44.540;18.784;2023-06-14T03:21:16;4.38;;;3.10;;
55776;SDS011;54079;44.540;18.784;2023-06-14T03:23:43;2.35;;;2.15;;
55776;SDS011;54079;44.540;18.784;2023-06-14T03:26:09;2.90;;;2.03;;
55776;SDS011;54079;44.540;18.784;2023-06-14T03:28:43;4.28;;;2.45;;
55776;SDS011;54079;44.540;18.784;2023-06-14T03:31:10;2.50;;;2.30;;
55776;SDS011;54079;44.540;18.784;2023-06-14T03:33:36;2.08;;;1.88;;
55776;SDS011;54079;44.540;18.784;2023-06-14T03:36:02;2.65;;;2.45;;
55776;SDS011;54079;44.540;18.784;2023-06-14T03:38:29;2.38;;;2.00;;
55776;SDS011;54079;44.540;18.784;2023-06-14T03:40:55;1.58;;;1.48;;
55776;SDS011;54079;44.540;18.784;2023-06-14T03:43:21;1.50;;;1.40;;
55776;SDS011;54079;44.540;18.784;2023-06-14T03:45:47;1.60;;;1.50;;
55776;SDS011;54079;44.540;18.784;2023-06-14T03:48:13;2.30;;;2.10;;
55776;SDS011;54079;44.540;18.784;2023-06-14T03:50:40;2.03;;;1.83;;
55776;SDS011;54079;44.540;18.784;2023-06-14T03:53:08;2.47;;;2.28;;
55776;SDS011;54079;44.540;18.784;2023-06-14T03:55:34;4.20;;;2.80;;
55776;SDS011;54079;44.540;18.784;2023-06-14T03:58:00;2.72;;;2.53;;
55776;SDS011;54079;44.540;18.784;2023-06-14T04:00:26;5.68;;;2.17;;
55776;SDS011;54079;44.540;18.784;2023-06-14T04:02:52;2.20;;;2.00;;
55776;SDS011;54079;44.540;18.784;2023-06-14T04:05:19;2.63;;;2.40;;
55776;SDS011;54079;44.540;18.784;2023-06-14T04:07:45;2.20;;;1.80;;
55776;SDS011;54079;44.540;18.784;2023-06-14T04:10:13;3.20;;;2.08;;
55776;SDS011;54079;44.540;18.784;2023-06-14T04:12:41;2.38;;;2.17;;
55776;SDS011;54079;44.540;18.784;2023-06-14T04:15:08;3.90;;;1.60;;
55776;SDS011;54079;44.540;18.784;2023-06-14T04:17:34;2.60;;;2.40;;
55776;SDS011;54079;44.540;18.784;2023-06-14T04:20:02;1.92;;;1.75;;
55776;SDS011;54079;44.540;18.784;2023-06-14T04:22:30;2.10;;;1.90;;
55776;SDS011;54079;44.540;18.784;2023-06-14T04:24:56;2.42;;;2.20;;
55776;SDS011;54079;44.540;18.784;2023-06-14T04:27:22;2.65;;;1.98;;
55776;SDS011;54079;44.540;18.784;2023-06-14T04:29:51;7.63;;;2.15;;
55776;SDS011;54079;44.540;18.784;2023-06-14T04:32:25;2.10;;;1.90;;
55776;SDS011;54079;44.540;18.784;2023-06-14T04:34:54;3.00;;;1.42;;
55776;SDS011;54079;44.540;18.784;2023-06-14T04:37:23;3.28;;;2.35;;
55776;SDS011;54079;44.540;18.784;2023-06-14T04:39:54;2.22;;;2.00;;
55776;SDS011;54079;44.540;18.784;2023-06-14T04:42:21;2.50;;;2.30;;
55776;SDS011;54079;44.540;18.784;2023-06-14T04:44:50;3.42;;;2.15;;
55776;SDS011;54079;44.540;18.784;2023-06-14T04:47:16;2.13;;;1.92;;
55776;SDS011;54079;44.540;18.784;2023-06-14T04:49:46;2.05;;;1.85;;
55776;SDS011;54079;44.540;18.784;2023-06-14T04:52:15;2.45;;;2.25;;
55776;SDS011;54079;44.540;18.784;2023-06-14T04:54:43;2.33;;;2.13;;
55776;SDS011;54079;44.540;18.784;2023-06-14T04:57:11;2.30;;;2.10;;
55776;SDS011;54079;44.540;18.784;2023-06-14T04:59:44;2.30;;;1.92;;
55776;SDS011;54079;44.540;18.784;2023-06-14T05:02:10;2.22;;;2.03;;
55776;SDS011;54079;44.540;18.784;2023-06-14T05:04:36;2.35;;;2.08;;
55776;SDS011;54079;44.540;18.784;2023-06-14T05:07:09;2.13;;;1.90;;
55776;SDS011;54079;44.540;18.784;2023-06-14T05:09:44;3.47;;;3.05;;
55776;SDS011;54079;44.540;18.784;2023-06-14T05:12:15;3.72;;;2.75;;
55776;SDS011;54079;44.540;18.784;2023-06-14T05:14:51;5.43;;;3.45;;
55776;SDS011;54079;44.540;18.784;2023-06-14T05:17:17;4.40;;;3.15;;
55776;SDS011;54079;44.540;18.784;2023-06-14T05:19:43;4.22;;;3.20;;
55776;SDS011;54079;44.540;18.784;2023-06-14T05:22:09;2.80;;;2.60;;
55776;SDS011;54079;44.540;18.784;2023-06-14T05:24:35;2.38;;;2.15;;
55776;SDS011;54079;44.540;18.784;2023-06-14T05:27:01;2.55;;;2.35;;
55776;SDS011;54079;44.540;18.784;2023-06-14T05:29:27;2.10;;;1.90;;
55776;SDS011;54079;44.540;18.784;2023-06-14T05:31:53;2.08;;;1.88;;
55776;SDS011;54079;44.540;18.784;2023-06-14T05:34:19;2.95;;;2.05;;
55776;SDS011;54079;44.540;18.784;2023-06-14T05:36:45;2.17;;;2.00;;
55776;SDS011;54079;44.540;18.784;2023-06-14T05:39:11;2.10;;;1.83;;
55776;SDS011;54079;44.540;18.784;2023-06-14T05:41:38;2.53;;;2.28;;
55776;SDS011;54079;44.540;18.784;2023-06-14T05:44:04;2.17;;;2.00;;
55776;SDS011;54079;44.540;18.784;2023-06-14T05:46:30;1.90;;;1.70;;
55776;SDS011;54079;44.540;18.784;2023-06-14T05:48:56;3.95;;;1.80;;
55776;SDS011;54079;44.540;18.784;2023-06-14T05:51:23;1.77;;;1.67;;
55776;SDS011;54079;44.540;18.784;2023-06-14T05:53:50;3.63;;;2.80;;
55776;SDS011;54079;44.540;18.784;2023-06-14T05:56:17;2.78;;;2.50;;
55776;SDS011;54079;44.540;18.784;2023-06-14T05:58:43;4.30;;;3.25;;
55776;SDS011;54079;44.540;18.784;2023-06-14T06:01:13;3.35;;;3.05;;
55776;SDS011;54079;44.540;18.784;2023-06-14T06:03:39;2.67;;;2.42;;
55776;SDS011;54079;44.540;18.784;2023-06-14T06:06:05;3.35;;;2.63;;
55776;SDS011;54079;44.540;18.784;2023-06-14T06:08:31;3.03;;;2.75;;
55776;SDS011;54079;44.540;18.784;2023-06-14T06:10:58;2.83;;;2.53;;
55776;SDS011;54079;44.540;18.784;2023-06-14T06:13:25;6.80;;;3.88;;
55776;SDS011;54079;44.540;18.784;2023-06-14T06:15:51;7.28;;;4.10;;
55776;SDS011;54079;44.540;18.784;2023-06-14T06:18:17;4.80;;;3.60;;
55776;SDS011;54079;44.540;18.784;2023-06-14T06:20:43;7.35;;;3.92;;
55776;SDS011;54079;44.540;18.784;2023-06-14T06:23:09;6.10;;;3.58;;
55776;SDS011;54079;44.540;18.784;2023-06-14T06:25:35;3.67;;;3.38;;
55776;SDS011;54079;44.540;18.784;2023-06-14T06:28:02;5.35;;;2.75;;
55776;SDS011;54079;44.540;18.784;2023-06-14T06:30:28;4.65;;;3.22;;
55776;SDS011;54079;44.540;18.784;2023-06-14T06:32:54;3.78;;;2.70;;
55776;SDS011;54079;44.540;18.784;2023-06-14T06:35:20;3.00;;;2.75;;
55776;SDS011;54079;44.540;18.784;2023-06-14T06:37:46;2.90;;;2.60;;
55776;SDS011;54079;44.540;18.784;2023-06-14T06:40:12;3.15;;;2.80;;
55776;SDS011;54079;44.540;18.784;2023-06-14T06:42:39;2.65;;;2.17;;
55776;SDS011;54079;44.540;18.784;2023-06-14T06:45:05;2.55;;;2.35;;
55776;SDS011;54079;44.540;18.784;2023-06-14T06:47:31;2.53;;;2.30;;
55776;SDS011;54079;44.540;18.784;2023-06-14T06:49:57;2.30;;;1.98;;
55776;SDS011;54079;44.540;18.784;2023-06-14T06:52:22;3.47;;;2.83;;
55776;SDS011;54079;44.540;18.784;2023-06-14T06:54:49;6.90;;;2.92;;
55776;SDS011;54079;44.540;18.784;2023-06-14T06:57:15;3.00;;;2.63;;
55776;SDS011;54079;44.540;18.784;2023-06-14T06:59:41;3.47;;;2.33;;
55776;SDS011;54079;44.540;18.784;2023-06-14T07:02:07;2.97;;;2.30;;
55776;SDS011;54079;44.540;18.784;2023-06-14T07:04:33;2.47;;;2.25;;
55776;SDS011;54079;44.540;18.784;2023-06-14T07:06:59;3.50;;;2.92;;
55776;SDS011;54079;44.540;18.784;2023-06-14T07:09:25;4.05;;;3.30;;
55776;SDS011;54079;44.540;18.784;2023-06-14T07:11:51;2.88;;;2.53;;
55776;SDS011;54079;44.540;18.784;2023-06-14T07:14:17;2.97;;;2.72;;
55776;SDS011;54079;44.540;18.784;2023-06-14T07:16:43;3.00;;;2.80;;
55776;SDS011;54079;44.540;18.784;2023-06-14T07:19:09;2.47;;;2.28;;
55776;SDS011;54079;44.540;18.784;2023-06-14T07:21:35;2.85;;;2.50;;
55776;SDS011;54079;44.540;18.784;2023-06-14T07:24:04;3.70;;;2.90;;
55776;SDS011;54079;44.540;18.784;2023-06-14T07:26:31;3.88;;;3.42;;
55776;SDS011;54079;44.540;18.784;2023-06-14T07:28:57;3.30;;;3.00;;
55776;SDS011;54079;44.540;18.784;2023-06-14T07:31:23;3.42;;;3.13;;
55776;SDS011;54079;44.540;18.784;2023-06-14T07:33:49;3.72;;;2.80;;
55776;SDS011;54079;44.540;18.784;2023-06-14T07:36:15;5.50;;;3.78;;
55776;SDS011;54079;44.540;18.784;2023-06-14T07:38:42;2.88;;;2.58;;
55776;SDS011;54079;44.540;18.784;2023-06-14T07:41:09;3.75;;;3.33;;
55776;SDS011;54079;44.540;18.784;2023-06-14T07:43:35;4.75;;;4.07;;
55776;SDS011;54079;44.540;18.784;2023-06-14T07:46:01;3.58;;;3.20;;
55776;SDS011;54079;44.540;18.784;2023-06-14T07:48:27;4.85;;;3.30;;
55776;SDS011;54079;44.540;18.784;2023-06-14T07:50:53;3.00;;;2.60;;
55776;SDS011;54079;44.540;18.784;2023-06-14T07:53:20;2.95;;;2.67;;
55776;SDS011;54079;44.540;18.784;2023-06-14T07:55:46;4.82;;;4.32;;
55776;SDS011;54079;44.540;18.784;2023-06-14T07:58:13;4.97;;;3.47;;
55776;SDS011;54079;44.540;18.784;2023-06-14T08:00:40;3.88;;;3.38;;
55776;SDS011;54079;44.540;18.784;2023-06-14T08:03:06;3.72;;;3.00;;
55776;SDS011;54079;44.540;18.784;2023-06-14T08:05:32;3.53;;;2.75;;
55776;SDS011;54079;44.540;18.784;2023-06-14T08:07:59;2.78;;;2.15;;
55776;SDS011;54079;44.540;18.784;2023-06-14T08:10:25;3.25;;;2.30;;
55776;SDS011;54079;44.540;18.784;2023-06-14T08:12:51;2.75;;;2.20;;
55776;SDS011;54079;44.540;18.784;2023-06-14T08:15:17;2.30;;;1.73;;
55776;SDS011;54079;44.540;18.784;2023-06-14T08:17:43;2.55;;;2.25;;
55776;SDS011;54079;44.540;18.784;2023-06-14T08:20:10;2.65;;;1.98;;
55776;SDS011;54079;44.540;18.784;2023-06-14T08:22:36;2.00;;;1.90;;
55776;SDS011;54079;44.540;18.784;2023-06-14T08:25:03;1.75;;;1.65;;
55776;SDS011;54079;44.540;18.784;2023-06-14T08:27:30;4.18;;;3.03;;
55776;SDS011;54079;44.540;18.784;2023-06-14T08:29:55;2.17;;;1.75;;
55776;SDS011;54079;44.540;18.784;2023-06-14T08:32:22;2.17;;;1.80;;
55776;SDS011;54079;44.540;18.784;2023-06-14T08:34:48;3.28;;;2.13;;
55776;SDS011;54079;44.540;18.784;2023-06-14T08:37:13;1.80;;;1.70;;
55776;SDS011;54079;44.540;18.784;2023-06-14T08:39:40;2.83;;;1.90;;
55776;SDS011;54079;44.540;18.784;2023-06-14T08:42:06;3.88;;;2.72;;
55776;SDS011;54079;44.540;18.784;2023-06-14T08:44:34;2.22;;;1.77;;
55776;SDS011;54079;44.540;18.784;2023-06-14T08:47:00;2.47;;;2.22;;
55776;SDS011;54079;44.540;18.784;2023-06-14T08:49:28;3.45;;;2.55;;
55776;SDS011;54079;44.540;18.784;2023-06-14T08:51:59;1.88;;;1.65;;
55776;SDS011;54079;44.540;18.784;2023-06-14T08:54:27;2.60;;;2.22;;
55776;SDS011;54079;44.540;18.784;2023-06-14T08:56:57;2.10;;;1.92;;
55776;SDS011;54079;44.540;18.784;2023-06-14T08:59:27;2.38;;;1.60;;
55776;SDS011;54079;44.540;18.784;2023-06-14T09:01:54;1.73;;;1.60;;
55776;SDS011;54079;44.540;18.784;2023-06-14T09:04:20;1.80;;;1.70;;
55776;SDS011;54079;44.540;18.784;2023-06-14T09:06:55;2.25;;;2.05;;
55776;SDS011;54079;44.540;18.784;2023-06-14T09:09:21;2.58;;;2.35;;
55776;SDS011;54079;44.540;18.784;2023-06-14T09:11:52;3.35;;;2.55;;
55776;SDS011;54079;44.540;18.784;2023-06-14T09:14:18;2.10;;;1.90;;
55776;SDS011;54079;44.540;18.784;2023-06-14T09:16:45;1.85;;;1.73;;
55776;SDS011;54079;44.540;18.784;2023-06-14T09:19:20;2.30;;;2.10;;
55776;SDS011;54079;44.540;18.784;2023-06-14T09:21:48;2.08;;;1.90;;
55776;SDS011;54079;44.540;18.784;2023-06-14T09:24:14;2.17;;;1.80;;
55776;SDS011;54079;44.540;18.784;2023-06-14T09:26:40;2.33;;;2.13;;
55776;SDS011;54079;44.540;18.784;2023-06-14T09:29:06;1.88;;;1.70;;
55776;SDS011;54079;44.540;18.784;2023-06-14T09:31:35;1.80;;;1.70;;
55776;SDS011;54079;44.540;18.784;2023-06-14T09:34:02;3.47;;;2.30;;
55776;SDS011;54079;44.540;18.784;2023-06-14T09:36:28;3.67;;;2.28;;
55776;SDS011;54079;44.540;18.784;2023-06-14T09:38:57;2.53;;;1.90;;
55776;SDS011;54079;44.540;18.784;2023-06-14T09:41:37;2.88;;;2.50;;
55776;SDS011;54079;44.540;18.784;2023-06-14T09:44:05;4.63;;;2.47;;
55776;SDS011;54079;44.540;18.784;2023-06-14T09:46:32;3.00;;;2.10;;
55776;SDS011;54079;44.540;18.784;2023-06-14T09:49:00;1.65;;;1.55;;
55776;SDS011;54079;44.540;18.784;2023-06-14T09:51:27;3.05;;;2.40;;
55776;SDS011;54079;44.540;18.784;2023-06-14T09:53:59;2.15;;;1.95;;
55776;SDS011;54079;44.540;18.784;2023-06-14T09:56:30;4.25;;;1.88;;
55776;SDS011;54079;44.540;18.784;2023-06-14T09:58:59;1.73;;;1.63;;
55776;SDS011;54079;44.540;18.784;2023-06-14T10:01:30;2.88;;;2.05;;
55776;SDS011;54079;44.540;18.784;2023-06-14T10:04:01;2.75;;;2.03;;
55776;SDS011;54079;44.540;18.784;2023-06-14T10:06:31;2.13;;;1.88;;
55776;SDS011;54079;44.540;18.784;2023-06-14T10:09:02;2.50;;;2.30;;
55776;SDS011;54079;44.540;18.784;2023-06-14T10:11:30;1.92;;;1.70;;
55776;SDS011;54079;44.540;18.784;2023-06-14T10:13:57;3.42;;;2.50;;
55776;SDS011;54079;44.540;18.784;2023-06-14T10:16:28;1.83;;;1.67;;
55776;SDS011;54079;44.540;18.784;2023-06-14T10:24:42;3.97;;;2.83;;
55776;SDS011;54079;44.540;18.784;2023-06-14T10:27:09;2.80;;;2.60;;
55776;SDS011;54079;44.540;18.784;2023-06-14T10:30:01;2.90;;;2.30;;
55776;SDS011;54079;44.540;18.784;2023-06-14T10:32:21;2.65;;;1.98;;
55776;SDS011;54079;44.540;18.784;2023-06-14T10:34:56;1.63;;;1.52;;
55776;SDS011;54079;44.540;18.784;2023-06-14T10:37:23;3.67;;;1.88;;
55776;SDS011;54079;44.540;18.784;2023-06-14T10:39:51;2.40;;;2.17;;
55776;SDS011;54079;44.540;18.784;2023-06-14T10:42:18;2.28;;;2.08;;
55776;SDS011;54079;44.540;18.784;2023-06-14T10:44:51;1.75;;;1.65;;
55776;SDS011;54079;44.540;18.784;2023-06-14T10:50:05;2.42;;;2.00;;
55776;SDS011;54079;44.540;18.784;2023-06-14T10:52:39;2.30;;;2.10;;
55776;SDS011;54079;44.540;18.784;2023-06-14T11:00:24;3.35;;;1.98;;
55776;SDS011;54079;44.540;18.784;2023-06-14T11:05:41;2.22;;;2.03;;
55776;SDS011;54079;44.540;18.784;2023-06-14T11:11:00;2.05;;;1.83;;
55776;SDS011;54079;44.540;18.784;2023-06-14T11:13:31;2.47;;;2.28;;
55776;SDS011;54079;44.540;18.784;2023-06-14T11:15:58;2.25;;;1.80;;
55776;SDS011;54079;44.540;18.784;2023-06-14T11:18:24;2.65;;;2.45;;
55776;SDS011;54079;44.540;18.784;2023-06-14T11:20:52;2.70;;;2.50;;
55776;SDS011;54079;44.540;18.784;2023-06-14T11:23:18;4.18;;;2.47;;
55776;SDS011;54079;44.540;18.784;2023-06-14T11:25:50;2.88;;;2.20;;
55776;SDS011;54079;44.540;18.784;2023-06-14T11:28:17;2.20;;;1.90;;
55776;SDS011;54079;44.540;18.784;2023-06-14T11:30:45;2.95;;;2.30;;
55776;SDS011;54079;44.540;18.784;2023-06-14T11:33:11;2.72;;;2.53;;
55776;SDS011;54079;44.540;18.784;2023-06-14T11:35:46;4.35;;;2.70;;
55776;SDS011;54079;44.540;18.784;2023-06-14T11:38:12;2.88;;;2.40;;
55776;SDS011;54079;44.540;18.784;2023-06-14T11:40:38;2.95;;;2.45;;
55776;SDS011;54079;44.540;18.784;2023-06-14T11:43:04;2.60;;;2.13;;
55776;SDS011;54079;44.540;18.784;2023-06-14T11:45:30;2.95;;;2.72;;
55776;SDS011;54079;44.540;18.784;2023-06-14T11:47:57;3.08;;;2.33;;
55776;SDS011;54079;44.540;18.784;2023-06-14T11:50:24;2.78;;;2.33;;
55776;SDS011;54079;44.540;18.784;2023-06-14T11:52:57;4.20;;;2.70;;
55776;SDS011;54079;44.540;18.784;2023-06-14T11:55:28;2.90;;;2.40;;
55776;SDS011;54079;44.540;18.784;2023-06-14T11:57:54;2.55;;;2.35;;
55776;SDS011;54079;44.540;18.784;2023-06-14T12:00:24;2.95;;;1.90;;
55776;SDS011;54079;44.540;18.784;2023-06-14T12:02:53;2.97;;;2.72;;
55776;SDS011;54079;44.540;18.784;2023-06-14T12:05:22;2.55;;;2.28;;
55776;SDS011;54079;44.540;18.784;2023-06-14T12:07:50;3.55;;;2.50;;
55776;SDS011;54079;44.540;18.784;2023-06-14T12:10:24;2.08;;;1.88;;
55776;SDS011;54079;44.540;18.784;2023-06-14T12:12:50;2.97;;;1.90;;
55776;SDS011;54079;44.540;18.784;2023-06-14T12:15:16;2.95;;;2.65;;
55776;SDS011;54079;44.540;18.784;2023-06-14T12:17:42;3.13;;;2.63;;
55776;SDS011;54079;44.540;18.784;2023-06-14T12:20:09;3.75;;;2.58;;
55776;SDS011;54079;44.540;18.784;2023-06-14T12:22:36;2.60;;;2.40;;
55776;SDS011;54079;44.540;18.784;2023-06-14T12:25:03;1.90;;;1.80;;
55776;SDS011;54079;44.540;18.784;2023-06-14T12:27:30;2.50;;;2.30;;
55776;SDS011;54079;44.540;18.784;2023-06-14T12:30:00;3.65;;;2.58;;
55776;SDS011;54079;44.540;18.784;2023-06-14T12:32:27;2.60;;;2.35;;
55776;SDS011;54079;44.540;18.784;2023-06-14T12:34:54;2.67;;;2.45;;
55776;SDS011;54079;44.540;18.784;2023-06-14T12:37:20;3.28;;;2.15;;
55776;SDS011;54079;44.540;18.784;2023-06-14T12:39:47;2.78;;;2.58;;
55776;SDS011;54079;44.540;18.784;2023-06-14T12:42:13;2.70;;;2.50;;
55776;SDS011;54079;44.540;18.784;2023-06-14T12:44:40;2.70;;;2.50;;
55776;SDS011;54079;44.540;18.784;2023-06-14T12:47:06;2.45;;;2.25;;
55776;SDS011;54079;44.540;18.784;2023-06-14T12:49:32;4.43;;;2.55;;
55776;SDS011;54079;44.540;18.784;2023-06-14T12:51:58;3.50;;;2.92;;
55776;SDS011;54079;44.540;18.784;2023-06-14T12:54:24;4.13;;;3.10;;
55776;SDS011;54079;44.540;18.784;2023-06-14T12:56:51;3.30;;;2.45;;
55776;SDS011;54079;44.540;18.784;2023-06-14T12:59:18;2.90;;;2.60;;
55776;SDS011;54079;44.540;18.784;2023-06-14T13:01:44;3.38;;;3.08;;
55776;SDS011;54079;44.540;18.784;2023-06-14T13:04:10;3.05;;;2.80;;
55776;SDS011;54079;44.540;18.784;2023-06-14T13:06:36;2.53;;;2.33;;
55776;SDS011;54079;44.540;18.784;2023-06-14T13:09:02;5.00;;;2.72;;
55776;SDS011;54079;44.540;18.784;2023-06-14T13:11:30;3.63;;;3.33;;
55776;SDS011;54079;44.540;18.784;2023-06-14T13:13:56;4.05;;;2.45;;
55776;SDS011;54079;44.540;18.784;2023-06-14T13:16:22;3.65;;;3.10;;
55776;SDS011;54079;44.540;18.784;2023-06-14T13:18:48;5.55;;;3.05;;
55776;SDS011;54079;44.540;18.784;2023-06-14T13:21:14;3.47;;;2.47;;
55776;SDS011;54079;44.540;18.784;2023-06-14T13:23:40;3.67;;;3.38;;
55776;SDS011;54079;44.540;18.784;2023-06-14T13:26:06;3.78;;;3.20;;
55776;SDS011;54079;44.540;18.784;2023-06-14T13:28:32;3.58;;;2.60;;
55776;SDS011;54079;44.540;18.784;2023-06-14T13:31:00;3.22;;;2.33;;
55776;SDS011;54079;44.540;18.784;2023-06-14T13:33:27;3.75;;;3.40;;
55776;SDS011;54079;44.540;18.784;2023-06-14T13:35:53;4.57;;;2.83;;
55776;SDS011;54079;44.540;18.784;2023-06-14T13:38:21;3.72;;;3.30;;
55776;SDS011;54079;44.540;18.784;2023-06-14T13:40:47;3.38;;;3.08;;
55776;SDS011;54079;44.540;18.784;2023-06-14T13:43:13;3.03;;;2.70;;
55776;SDS011;54079;44.540;18.784;2023-06-14T13:45:39;3.60;;;3.30;;
55776;SDS011;54079;44.540;18.784;2023-06-14T13:48:05;3.13;;;2.92;;
55776;SDS011;54079;44.540;18.784;2023-06-14T13:50:31;3.05;;;2.53;;
55776;SDS011;54079;44.540;18.784;2023-06-14T13:52:57;3.65;;;3.35;;
55776;SDS011;54079;44.540;18.784;2023-06-14T13:55:23;3.42;;;3.13;;
55776;SDS011;54079;44.540;18.784;2023-06-14T13:57:49;3.47;;;3.15;;
55776;SDS011;54079;44.540;18.784;2023-06-14T14:00:15;3.53;;;2.50;;
55776;SDS011;54079;44.540;18.784;2023-06-14T14:02:42;3.17;;;2.70;;
55776;SDS011;54079;44.540;18.784;2023-06-14T14:05:08;3.80;;;2.92;;
55776;SDS011;54079;44.540;18.784;2023-06-14T14:07:34;2.80;;;2.55;;
55776;SDS011;54079;44.540;18.784;2023-06-14T14:10:01;2.78;;;2.53;;
55776;SDS011;54079;44.540;18.784;2023-06-14T14:12:27;3.60;;;2.05;;
55776;SDS011;54079;44.540;18.784;2023-06-14T14:14:53;3.13;;;2.60;;
55776;SDS011;54079;44.540;18.784;2023-06-14T14:17:20;3.03;;;2.70;;
55776;SDS011;54079;44.540;18.784;2023-06-14T14:19:45;3.47;;;3.00;;
55776;SDS011;54079;44.540;18.784;2023-06-14T14:22:11;4.53;;;2.47;;
55776;SDS011;54079;44.540;18.784;2023-06-14T14:24:37;3.20;;;2.90;;
55776;SDS011;54079;44.540;18.784;2023-06-14T14:27:03;2.85;;;2.65;;
55776;SDS011;54079;44.540;18.784;2023-06-14T14:29:31;5.40;;;3.00;;
55776;SDS011;54079;44.540;18.784;2023-06-14T14:31:57;2.30;;;2.10;;
55776;SDS011;54079;44.540;18.784;2023-06-14T14:34:26;3.40;;;2.33;;
55776;SDS011;54079;44.540;18.784;2023-06-14T14:36:53;3.28;;;2.65;;
55776;SDS011;54079;44.540;18.784;2023-06-14T14:39:19;3.33;;;3.03;;
55776;SDS011;54079;44.540;18.784;2023-06-14T14:41:45;3.78;;;3.42;;
55776;SDS011;54079;44.540;18.784;2023-06-14T14:44:11;3.35;;;2.60;;
55776;SDS011;54079;44.540;18.784;2023-06-14T14:46:37;3.25;;;2.58;;
55776;SDS011;54079;44.540;18.784;2023-06-14T14:49:04;3.20;;;2.90;;
55776;SDS011;54079;44.540;18.784;2023-06-14T14:51:30;3.53;;;3.22;;
55776;SDS011;54079;44.540;18.784;2023-06-14T14:53:56;3.45;;;3.15;;
55776;SDS011;54079;44.540;18.784;2023-06-14T14:56:22;2.97;;;2.60;;